Time;durP1;ratioP1;P1;durP2;ratioP2;P2;SDS_P1;SDS_P2;PMS_P1;PMS_P2;Temp;Humidity;BMP_temperature;BMP_pressure;BME280_temperature;BME280_humidity;BME280_pressure;Samples;Min_cycle;Max_cycle;Signal;HPM_P1;HPM_P2
2021/05/15 00:00:45;;;;;;;24.65;22.05;;;;;;;;;;2072760;28;20636;-52
2021/05/15 00:01:45;;;;;;;24.23;21.75;;;;;;;;;;2072448;28;20231;-50
2021/05/15 00:02:46;;;;;;;24.17;21.55;;;;;;;;;;2073301;28;20244;-50
2021/05/15 00:03:46;;;;;;;23.45;21.08;;;;;;;;;;2074330;28;20181;-51
2021/05/15 00:04:46;;;;;;;22.58;20.45;;;;;;;;;;2070489;28;20200;-53
2021/05/15 00:05:46;;;;;;;24.00;21.40;;;;;;;;;;2072268;28;20273;-49
2021/05/15 00:06:47;;;;;;;24.58;21.83;;;;;;;;;;2073575;28;20189;-48
2021/05/15 00:07:47;;;;;;;25.25;22.67;;;;;;;;;;2063840;28;20193;-54
2021/05/15 00:08:47;;;;;;;25.20;22.55;;;;;;;;;;2064883;28;20597;-51
2021/05/15 00:09:48;;;;;;;25.92;23.23;;;;;;;;;;2064586;28;20193;-50
2021/05/15 00:10:48;;;;;;;29.25;25.35;;;;;;;;;;2064373;28;20184;-50
2021/05/15 00:11:49;;;;;;;25.63;22.92;;;;;;;;;;2068009;28;20178;-50
2021/05/15 00:12:49;;;;;;;28.73;25.67;;;;;;;;;;2068557;28;20189;-50
2021/05/15 00:13:49;;;;;;;26.00;23.20;;;;;;;;;;2065313;28;20232;-52
2021/05/15 00:14:51;;;;;;;23.67;21.27;;;;;;;;;;2072249;28;20186;-52
2021/05/15 00:15:51;;;;;;;25.55;22.90;;;;;;;;;;2064183;28;20247;-48
2021/05/15 00:16:52;;;;;;;23.35;21.08;;;;;;;;;;2064831;28;20216;-55
2021/05/15 00:17:53;;;;;;;27.05;22.83;;;;;;;;;;2072709;28;20179;-53
2021/05/15 00:18:54;;;;;;;24.38;21.77;;;;;;;;;;2073026;28;20239;-52
2021/05/15 00:19:54;;;;;;;25.70;22.52;;;;;;;;;;2063921;28;20205;-52
2021/05/15 00:20:54;;;;;;;25.08;22.45;;;;;;;;;;2056301;28;20290;-55
2021/05/15 00:21:54;;;;;;;26.20;23.52;;;;;;;;;;2063894;28;20228;-50
2021/05/15 00:22:55;;;;;;;26.10;23.30;;;;;;;;;;2064030;28;20178;-51
2021/05/15 00:23:55;;;;;;;26.85;23.17;;;;;;;;;;2072639;28;20199;-51
2021/05/15 00:24:55;;;;;;;27.85;25.05;;;;;;;;;;2072454;28;20172;-49
2021/05/15 00:25:56;;;;;;;27.13;24.08;;;;;;;;;;2072628;28;20752;-50
2021/05/15 00:26:56;;;;;;;27.08;24.00;;;;;;;;;;2066771;28;20173;-48
2021/05/15 00:27:56;;;;;;;28.38;25.40;;;;;;;;;;2072342;28;20544;-53
2021/05/15 00:28:57;;;;;;;30.55;25.70;;;;;;;;;;2063470;28;20724;-55
2021/05/15 00:29:57;;;;;;;29.02;25.73;;;;;;;;;;2063819;28;20209;-51
2021/05/15 00:30:57;;;;;;;30.92;27.67;;;;;;;;;;2065862;28;20181;-49
2021/05/15 00:31:58;;;;;;;29.88;26.67;;;;;;;;;;2072765;28;20188;-50
2021/05/15 00:32:58;;;;;;;31.10;27.80;;;;;;;;;;2066781;28;20200;-52
2021/05/15 00:33:58;;;;;;;31.25;27.85;;;;;;;;;;2072795;28;20169;-48
2021/05/15 00:34:58;;;;;;;29.25;25.98;;;;;;;;;;2079230;28;20176;-49
2021/05/15 00:35:59;;;;;;;30.23;26.42;;;;;;;;;;2055634;28;20196;-57
2021/05/15 00:36:59;;;;;;;29.90;26.33;;;;;;;;;;2053808;28;20642;-52
2021/05/15 00:37:59;;;;;;;30.50;26.02;;;;;;;;;;2063852;28;20209;-51
2021/05/15 00:39:00;;;;;;;31.38;26.55;;;;;;;;;;2067903;28;20196;-49
2021/05/15 00:40:00;;;;;;;31.83;28.40;;;;;;;;;;2065782;28;20213;-50
2021/05/15 00:41:00;;;;;;;31.88;27.67;;;;;;;;;;2075981;28;20184;-48
2021/05/15 00:42:01;;;;;;;31.70;27.40;;;;;;;;;;2072532;28;20196;-50
2021/05/15 00:43:01;;;;;;;31.30;27.35;;;;;;;;;;2067983;28;20177;-50
2021/05/15 00:44:18;;;;;;;32.53;27.52;;;;;;;;;;2073772;28;20504;-50
2021/05/15 00:45:19;;;;;;;35.05;28.10;;;;;;;;;;2068481;28;20200;-49
2021/05/15 00:46:19;;;;;;;29.65;25.70;;;;;;;;;;2072411;28;20649;-51
2021/05/15 00:47:22;;;;;;;30.50;26.45;;;;;;;;;;2071898;28;20177;-48
2021/05/15 00:48:23;;;;;;;35.30;28.60;;;;;;;;;;2070653;28;20191;-49
2021/05/15 00:49:23;;;;;;;33.78;28.00;;;;;;;;;;2069081;28;20169;-49
2021/05/15 00:50:23;;;;;;;31.00;27.02;;;;;;;;;;2070671;28;20659;-49
2021/05/15 00:51:24;;;;;;;31.13;27.77;;;;;;;;;;2069206;28;20536;-50
2021/05/15 00:52:27;;;;;;;30.15;26.83;;;;;;;;;;2070256;28;20188;-55
2021/05/15 00:53:28;;;;;;;31.65;28.20;;;;;;;;;;2060747;28;20166;-50
2021/05/15 00:54:28;;;;;;;32.38;27.17;;;;;;;;;;2065318;28;20189;-49
2021/05/15 00:55:28;;;;;;;34.58;28.10;;;;;;;;;;2074271;28;20645;-52
2021/05/15 00:56:29;;;;;;;34.47;28.33;;;;;;;;;;2073159;28;20177;-51
2021/05/15 00:57:29;;;;;;;35.42;28.52;;;;;;;;;;2073085;28;20180;-50
2021/05/15 00:58:30;;;;;;;32.45;26.70;;;;;;;;;;2072195;28;20204;-51
2021/05/15 00:59:30;;;;;;;32.28;27.67;;;;;;;;;;2063833;28;20170;-48
2021/05/15 01:00:31;;;;;;;31.20;27.83;;;;;;;;;;2054982;28;20186;-54
2021/05/15 01:01:32;;;;;;;32.90;28.00;;;;;;;;;;2065385;28;20261;-51
2021/05/15 01:02:32;;;;;;;36.20;29.73;;;;;;;;;;2066492;28;20174;-49
2021/05/15 01:03:33;;;;;;;33.33;28.17;;;;;;;;;;2061900;28;20228;-50
2021/05/15 01:04:34;;;;;;;36.17;29.85;;;;;;;;;;2064543;28;20213;-51
2021/05/15 01:05:34;;;;;;;36.75;30.05;;;;;;;;;;2069386;28;20173;-49
2021/05/15 01:06:36;;;;;;;35.75;28.98;;;;;;;;;;2063904;28;20208;-50
2021/05/15 01:07:37;;;;;;;39.40;30.40;;;;;;;;;;2064422;28;20170;-49
2021/05/15 01:08:42;;;;;;;36.97;30.60;;;;;;;;;;2056754;28;20511;-51
2021/05/15 01:09:43;;;;;;;36.90;30.60;;;;;;;;;;2054955;28;20182;-50
2021/05/15 01:10:43;;;;;;;39.13;31.15;;;;;;;;;;2064196;28;20220;-55
2021/05/15 01:11:43;;;;;;;36.13;29.75;;;;;;;;;;2057388;28;20177;-58
2021/05/15 01:12:50;;;;;;;38.63;30.55;;;;;;;;;;2061416;28;20280;-51
2021/05/15 01:13:50;;;;;;;35.33;29.00;;;;;;;;;;2073790;28;20542;-50
2021/05/15 01:14:51;;;;;;;37.15;30.38;;;;;;;;;;2073231;28;20177;-49
2021/05/15 01:15:51;;;;;;;38.78;30.33;;;;;;;;;;2057044;28;20262;-53
2021/05/15 01:16:52;;;;;;;35.42;28.33;;;;;;;;;;2040762;29;20186;-52
2021/05/15 01:17:56;;;;;;;36.65;30.27;;;;;;;;;;2056289;28;20178;-49
2021/05/15 01:18:56;;;;;;;40.97;30.27;;;;;;;;;;2056475;28;20230;-50
2021/05/15 01:19:57;;;;;;;38.20;31.30;;;;;;;;;;2063893;28;20693;-50
2021/05/15 01:20:58;;;;;;;37.25;30.88;;;;;;;;;;2056066;28;20558;-50
2021/05/15 01:21:59;;;;;;;37.13;29.42;;;;;;;;;;2056253;28;20167;-50
2021/05/15 01:22:59;;;;;;;36.58;30.63;;;;;;;;;;2066752;28;20360;-50
2021/05/15 01:24:00;;;;;;;36.90;29.90;;;;;;;;;;2073186;28;20177;-50
2021/05/15 01:25:00;;;;;;;40.65;29.55;;;;;;;;;;2064245;28;20269;-49
2021/05/15 01:26:10;;;;;;;42.05;32.10;;;;;;;;;;2056506;28;20261;-51
2021/05/15 01:27:13;;;;;;;39.92;30.30;;;;;;;;;;2064860;28;20162;-49
2021/05/15 01:28:13;;;;;;;37.85;30.90;;;;;;;;;;2072280;28;20177;-49
2021/05/15 01:29:14;;;;;;;36.92;31.00;;;;;;;;;;2070134;28;20641;-52
2021/05/15 01:30:14;;;;;;;39.13;30.23;;;;;;;;;;2066753;28;20212;-51
2021/05/15 01:31:15;;;;;;;39.63;31.23;;;;;;;;;;2071919;28;20251;-47
2021/05/15 01:32:15;;;;;;;36.80;32.05;;;;;;;;;;2072315;28;20169;-52
2021/05/15 01:33:15;;;;;;;36.70;30.52;;;;;;;;;;2071134;28;20251;-52
2021/05/15 01:34:15;;;;;;;34.58;29.00;;;;;;;;;;2072222;28;20174;-53
2021/05/15 01:35:17;;;;;;;39.00;29.80;;;;;;;;;;2070651;28;20640;-51
2021/05/15 01:36:18;;;;;;;35.42;29.52;;;;;;;;;;2072475;28;20664;-53
2021/05/15 01:37:18;;;;;;;34.42;29.38;;;;;;;;;;2069907;28;20188;-56
2021/05/15 01:38:18;;;;;;;32.95;28.55;;;;;;;;;;2069469;28;20169;-52
2021/05/15 01:39:19;;;;;;;35.00;28.70;;;;;;;;;;2069950;28;20185;-52
2021/05/15 01:40:19;;;;;;;36.70;29.15;;;;;;;;;;2072288;28;20575;-53
2021/05/15 01:41:20;;;;;;;34.33;28.27;;;;;;;;;;2074739;28;20200;-50
2021/05/15 01:42:21;;;;;;;37.35;29.48;;;;;;;;;;2063713;28;20201;-51
2021/05/15 01:43:21;;;;;;;37.75;29.42;;;;;;;;;;2060008;28;20295;-50
2021/05/15 01:44:21;;;;;;;38.25;31.05;;;;;;;;;;2072713;28;20201;-52
2021/05/15 01:45:25;;;;;;;39.33;31.92;;;;;;;;;;2071387;28;20173;-52
2021/05/15 01:46:26;;;;;;;37.55;30.63;;;;;;;;;;2071974;28;20180;-52
2021/05/15 01:47:27;;;;;;;44.05;32.90;;;;;;;;;;2068161;28;20201;-53
2021/05/15 01:48:27;;;;;;;44.58;33.80;;;;;;;;;;2071691;28;20169;-52
2021/05/15 01:49:27;;;;;;;46.15;35.85;;;;;;;;;;2072284;28;20217;-51
2021/05/15 01:50:27;;;;;;;46.03;36.72;;;;;;;;;;2073624;28;20236;-52
2021/05/15 01:51:28;;;;;;;42.60;33.10;;;;;;;;;;2073655;28;20215;-55
2021/05/15 01:52:28;;;;;;;48.08;34.78;;;;;;;;;;2073586;28;20185;-53
2021/05/15 01:53:29;;;;;;;47.78;35.00;;;;;;;;;;2073799;28;20177;-49
2021/05/15 01:54:29;;;;;;;47.70;35.90;;;;;;;;;;2062733;28;20174;-52
2021/05/15 01:55:30;;;;;;;43.35;34.33;;;;;;;;;;2065244;28;20170;-54
2021/05/15 01:56:31;;;;;;;47.75;36.17;;;;;;;;;;2073843;28;20675;-55
2021/05/15 01:57:31;;;;;;;45.85;35.17;;;;;;;;;;2073175;28;20173;-50
2021/05/15 01:58:31;;;;;;;47.38;35.95;;;;;;;;;;2074232;28;20172;-54
2021/05/15 01:59:32;;;;;;;40.80;34.15;;;;;;;;;;2065351;28;20205;-48
2021/05/15 02:00:32;;;;;;;44.80;36.20;;;;;;;;;;2062759;28;20229;-54
2021/05/15 02:01:32;;;;;;;41.30;33.13;;;;;;;;;;2065176;28;20181;-52
2021/05/15 02:02:32;;;;;;;40.72;31.48;;;;;;;;;;2056740;28;20219;-50
2021/05/15 02:03:33;;;;;;;41.38;31.67;;;;;;;;;;2054415;28;20623;-53
2021/05/15 02:04:33;;;;;;;40.67;32.67;;;;;;;;;;2064702;28;20245;-53
2021/05/15 02:05:34;;;;;;;40.15;32.05;;;;;;;;;;2073929;28;20537;-52
2021/05/15 02:06:34;;;;;;;39.40;31.95;;;;;;;;;;2073838;28;20177;-50
2021/05/15 02:07:34;;;;;;;39.67;31.77;;;;;;;;;;2076364;28;20580;-48
2021/05/15 02:08:34;;;;;;;35.30;30.45;;;;;;;;;;2070681;28;20185;-50
2021/05/15 02:09:35;;;;;;;37.83;30.88;;;;;;;;;;2074643;28;20256;-57
2021/05/15 02:10:35;;;;;;;43.88;32.90;;;;;;;;;;2070037;28;20176;-54
2021/05/15 02:11:38;;;;;;;41.72;32.50;;;;;;;;;;2068862;28;20177;-53
2021/05/15 02:12:38;;;;;;;41.60;32.22;;;;;;;;;;2071226;28;20720;-50
2021/05/15 02:13:39;;;;;;;41.42;32.80;;;;;;;;;;2073691;28;20181;-52
2021/05/15 02:14:39;;;;;;;40.05;32.65;;;;;;;;;;2073378;28;20193;-55
2021/05/15 02:15:39;;;;;;;41.50;32.80;;;;;;;;;;2065114;28;20603;-54
2021/05/15 02:16:40;;;;;;;42.03;31.65;;;;;;;;;;2052472;28;20682;-50
2021/05/15 02:17:40;;;;;;;41.63;33.40;;;;;;;;;;2046237;29;20206;-53
2021/05/15 02:18:40;;;;;;;42.65;33.88;;;;;;;;;;2048354;29;20181;-51
2021/05/15 02:19:40;;;;;;;43.58;32.97;;;;;;;;;;2054143;28;20215;-51
2021/05/15 02:20:42;;;;;;;41.90;33.00;;;;;;;;;;2064926;28;20188;-49
2021/05/15 02:21:42;;;;;;;44.50;35.75;;;;;;;;;;2072125;28;20173;-53
2021/05/15 02:22:43;;;;;;;45.53;35.03;;;;;;;;;;2074232;28;20188;-54
2021/05/15 02:23:43;;;;;;;46.00;34.42;;;;;;;;;;2073213;28;20763;-50
2021/05/15 02:24:43;;;;;;;42.03;33.67;;;;;;;;;;2067706;28;20268;-51
2021/05/15 02:25:45;;;;;;;44.65;34.30;;;;;;;;;;2072291;28;20176;-54
2021/05/15 02:26:46;;;;;;;45.58;34.30;;;;;;;;;;2073167;28;20169;-54
2021/05/15 02:27:46;;;;;;;44.88;35.13;;;;;;;;;;2073471;28;20200;-53
2021/05/15 02:28:47;;;;;;;43.38;33.38;;;;;;;;;;2067032;28;20564;-53
2021/05/15 02:29:47;;;;;;;44.70;35.05;;;;;;;;;;2072614;28;20177;-49
2021/05/15 02:30:48;;;;;;;46.70;36.45;;;;;;;;;;2073585;28;20184;-50
2021/05/15 02:31:48;;;;;;;45.60;35.10;;;;;;;;;;2064689;28;20225;-53
2021/05/15 02:32:48;;;;;;;47.63;36.35;;;;;;;;;;2056571;28;20187;-51
2021/05/15 02:33:49;;;;;;;49.10;37.28;;;;;;;;;;2064456;28;20332;-49
2021/05/15 02:34:49;;;;;;;48.55;35.72;;;;;;;;;;2073972;28;20185;-51
2021/05/15 02:35:49;;;;;;;45.58;34.17;;;;;;;;;;2073643;28;20173;-53
2021/05/15 02:36:49;;;;;;;39.83;31.50;;;;;;;;;;2072209;28;20211;-54
2021/05/15 02:37:51;;;;;;;37.33;31.23;;;;;;;;;;2071914;28;20181;-49
2021/05/15 02:38:51;;;;;;;36.78;30.55;;;;;;;;;;2072317;28;20645;-49
2021/05/15 02:39:51;;;;;;;38.13;31.73;;;;;;;;;;2068230;28;20209;-49
2021/05/15 02:40:54;;;;;;;37.28;31.85;;;;;;;;;;2073365;28;20203;-49
2021/05/15 02:41:55;;;;;;;37.22;31.83;;;;;;;;;;2071442;28;20180;-49
2021/05/15 02:42:55;;;;;;;37.40;30.70;;;;;;;;;;2065046;28;20233;-50
2021/05/15 02:43:55;;;;;;;36.30;30.67;;;;;;;;;;2073742;28;20525;-49
2021/05/15 02:44:56;;;;;;;39.15;30.73;;;;;;;;;;2074372;28;20256;-51
2021/05/15 02:45:56;;;;;;;37.45;31.38;;;;;;;;;;2067289;28;20182;-51
2021/05/15 02:46:56;;;;;;;37.03;29.90;;;;;;;;;;2066712;28;20174;-53
2021/05/15 02:47:57;;;;;;;37.83;31.58;;;;;;;;;;2063348;28;20212;-54
2021/05/15 02:48:58;;;;;;;37.35;31.38;;;;;;;;;;2065903;28;20166;-53
2021/05/15 02:49:58;;;;;;;35.03;30.50;;;;;;;;;;2058931;28;20190;-49
2021/05/15 02:50:58;;;;;;;37.65;29.20;;;;;;;;;;2074173;28;20172;-55
2021/05/15 02:51:59;;;;;;;40.20;31.08;;;;;;;;;;2075344;28;20173;-50
2021/05/15 02:52:59;;;;;;;34.63;29.05;;;;;;;;;;2067359;28;20178;-50
2021/05/15 02:53:59;;;;;;;35.78;29.42;;;;;;;;;;2060576;28;20186;-49
2021/05/15 02:54:59;;;;;;;35.33;28.45;;;;;;;;;;2075060;28;20184;-49
2021/05/15 02:56:00;;;;;;;33.83;28.33;;;;;;;;;;2068611;28;20232;-51
2021/05/15 02:57:00;;;;;;;35.10;28.92;;;;;;;;;;2068130;28;20182;-51
2021/05/15 02:58:01;;;;;;;37.25;30.73;;;;;;;;;;2076829;28;20172;-49
2021/05/15 02:59:01;;;;;;;38.63;31.38;;;;;;;;;;2074338;28;20177;-51
2021/05/15 03:00:04;;;;;;;35.15;29.02;;;;;;;;;;2065407;28;20220;-54
2021/05/15 03:01:04;;;;;;;38.75;29.85;;;;;;;;;;2064266;28;20196;-52
2021/05/15 03:02:04;;;;;;;39.90;32.53;;;;;;;;;;2065355;28;20185;-52
2021/05/15 03:03:04;;;;;;;34.78;29.20;;;;;;;;;;2064396;28;20273;-51
2021/05/15 03:04:05;;;;;;;34.53;29.60;;;;;;;;;;2073966;28;20180;-53
2021/05/15 03:05:07;;;;;;;36.90;29.20;;;;;;;;;;2073444;28;20189;-52
2021/05/15 03:06:07;;;;;;;34.63;29.42;;;;;;;;;;2073865;28;20165;-50
2021/05/15 03:07:07;;;;;;;37.13;29.67;;;;;;;;;;2070339;28;20181;-50
2021/05/15 03:08:08;;;;;;;34.67;28.30;;;;;;;;;;2073375;28;20252;-51
2021/05/15 03:09:08;;;;;;;39.38;30.40;;;;;;;;;;2065933;28;20251;-54
2021/05/15 03:10:09;;;;;;;37.45;29.45;;;;;;;;;;2067107;28;20213;-49
2021/05/15 03:11:09;;;;;;;37.70;29.17;;;;;;;;;;2075700;28;20173;-53
2021/05/15 03:12:09;;;;;;;31.52;27.85;;;;;;;;;;2072438;28;20174;-53
2021/05/15 03:13:09;;;;;;;33.60;27.45;;;;;;;;;;2068429;28;20254;-51
2021/05/15 03:14:10;;;;;;;34.28;28.20;;;;;;;;;;2067573;28;20261;-51
2021/05/15 03:15:12;;;;;;;32.92;27.38;;;;;;;;;;2071661;28;20193;-51
2021/05/15 03:16:12;;;;;;;36.30;28.70;;;;;;;;;;2075501;28;20192;-50
2021/05/15 03:17:12;;;;;;;33.88;28.77;;;;;;;;;;2065560;28;20178;-49
2021/05/15 03:18:13;;;;;;;39.17;29.52;;;;;;;;;;2063319;28;20616;-49
2021/05/15 03:19:13;;;;;;;35.78;28.23;;;;;;;;;;2075900;28;20247;-49
2021/05/15 03:20:14;;;;;;;35.08;28.83;;;;;;;;;;2075236;28;20200;-53
2021/05/15 03:21:15;;;;;;;35.20;29.98;;;;;;;;;;2075381;28;20594;-49
2021/05/15 03:22:15;;;;;;;35.75;28.55;;;;;;;;;;2073954;28;20164;-49
2021/05/15 03:23:15;;;;;;;35.53;28.60;;;;;;;;;;2073923;28;20161;-49
2021/05/15 03:24:15;;;;;;;35.70;29.45;;;;;;;;;;2069832;28;20595;-55
2021/05/15 03:25:16;;;;;;;35.78;28.67;;;;;;;;;;2064950;28;20177;-52
2021/05/15 03:26:16;;;;;;;33.97;26.65;;;;;;;;;;2064773;28;20190;-49
2021/05/15 03:27:17;;;;;;;35.67;30.05;;;;;;;;;;2073515;28;20376;-50
2021/05/15 03:28:17;;;;;;;34.75;27.95;;;;;;;;;;2073086;28;20173;-49
2021/05/15 03:29:17;;;;;;;33.92;28.73;;;;;;;;;;2073561;28;20902;-50
2021/05/15 03:30:18;;;;;;;36.53;29.35;;;;;;;;;;2072271;28;20264;-53
2021/05/15 03:31:18;;;;;;;32.78;27.90;;;;;;;;;;2065087;28;20547;-52
2021/05/15 03:32:18;;;;;;;34.22;28.65;;;;;;;;;;2064866;28;20527;-49
2021/05/15 03:33:19;;;;;;;35.15;27.85;;;;;;;;;;2073456;28;20176;-49
2021/05/15 03:34:19;;;;;;;33.13;28.45;;;;;;;;;;2073143;28;20176;-49
2021/05/15 03:35:20;;;;;;;34.83;27.85;;;;;;;;;;2073692;28;20632;-49
2021/05/15 03:36:21;;;;;;;34.45;27.35;;;;;;;;;;2070934;28;20596;-53
2021/05/15 03:37:21;;;;;;;33.30;28.00;;;;;;;;;;2072912;28;20640;-49
2021/05/15 03:38:22;;;;;;;33.90;27.77;;;;;;;;;;2070381;28;20268;-49
2021/05/15 03:39:22;;;;;;;31.20;26.85;;;;;;;;;;2071685;28;20170;-48
2021/05/15 03:40:22;;;;;;;30.65;26.90;;;;;;;;;;2068537;28;20530;-49
2021/05/15 03:41:23;;;;;;;31.40;27.20;;;;;;;;;;2060413;28;20261;-50
2021/05/15 03:42:23;;;;;;;30.60;26.17;;;;;;;;;;2060149;28;20245;-52
2021/05/15 03:43:24;;;;;;;31.17;26.27;;;;;;;;;;2068406;28;20709;-55
2021/05/15 03:44:24;;;;;;;33.03;28.38;;;;;;;;;;2060819;28;20181;-51
2021/05/15 03:45:24;;;;;;;31.75;27.13;;;;;;;;;;2073029;28;20161;-55
2021/05/15 03:46:25;;;;;;;29.92;25.42;;;;;;;;;;2072355;28;20258;-53
2021/05/15 03:47:25;;;;;;;29.80;25.23;;;;;;;;;;2068570;28;20172;-51
2021/05/15 03:48:25;;;;;;;32.35;25.85;;;;;;;;;;2070563;28;20173;-51
2021/05/15 03:49:26;;;;;;;29.67;24.75;;;;;;;;;;2069078;28;20252;-49
2021/05/15 03:50:27;;;;;;;29.60;25.98;;;;;;;;;;2073408;28;20230;-50
2021/05/15 03:51:27;;;;;;;28.63;25.15;;;;;;;;;;2063579;28;20229;-53
2021/05/15 03:52:27;;;;;;;31.63;25.40;;;;;;;;;;2056477;28;20594;-53
2021/05/15 03:53:27;;;;;;;29.50;24.80;;;;;;;;;;2062817;28;20181;-53
2021/05/15 03:54:28;;;;;;;31.67;25.42;;;;;;;;;;2072648;28;20165;-50
2021/05/15 03:55:28;;;;;;;29.15;25.02;;;;;;;;;;2072679;28;20181;-51
2021/05/15 03:56:28;;;;;;;28.95;25.02;;;;;;;;;;2073013;28;20629;-53
2021/05/15 03:57:28;;;;;;;29.15;25.67;;;;;;;;;;2073081;28;20204;-50
2021/05/15 03:58:29;;;;;;;28.48;25.38;;;;;;;;;;2074141;28;20196;-50
2021/05/15 03:59:30;;;;;;;27.15;24.27;;;;;;;;;;2074340;28;20203;-48
2021/05/15 04:00:31;;;;;;;32.05;25.50;;;;;;;;;;2074150;28;20254;-49
2021/05/15 04:01:31;;;;;;;28.25;24.83;;;;;;;;;;2071554;28;20169;-49
2021/05/15 04:02:31;;;;;;;27.50;24.08;;;;;;;;;;2073454;28;20175;-51
2021/05/15 04:03:31;;;;;;;28.52;25.45;;;;;;;;;;2073570;28;20260;-48
2021/05/15 04:04:33;;;;;;;25.98;23.30;;;;;;;;;;2070797;28;20251;-56
2021/05/15 04:05:34;;;;;;;28.88;25.77;;;;;;;;;;2072935;28;20177;-50
2021/05/15 04:06:34;;;;;;;27.55;24.58;;;;;;;;;;2071458;28;20161;-55
2021/05/15 04:07:34;;;;;;;28.02;23.60;;;;;;;;;;2072633;28;20531;-56
2021/05/15 04:08:34;;;;;;;27.65;24.38;;;;;;;;;;2071696;28;20177;-52
2021/05/15 04:09:35;;;;;;;27.17;24.27;;;;;;;;;;2072267;28;20188;-53
2021/05/15 04:10:36;;;;;;;26.45;23.40;;;;;;;;;;2070251;28;20664;-54
2021/05/15 04:11:38;;;;;;;24.25;21.67;;;;;;;;;;2072858;28;20176;-52
2021/05/15 04:12:47;;;;;;;25.17;22.02;;;;;;;;;;2071927;28;20200;-50
2021/05/15 04:13:58;;;;;;;29.38;24.13;;;;;;;;;;2074875;28;20153;-53
2021/05/15 04:15:07;;;;;;;26.90;23.25;;;;;;;;;;2071321;28;20215;-52
2021/05/15 04:16:16;;;;;;;26.95;23.42;;;;;;;;;;2076446;28;20157;-52
2021/05/15 04:17:20;;;;;;;27.10;24.13;;;;;;;;;;2070473;28;20173;-50
2021/05/15 04:18:20;;;;;;;24.80;22.05;;;;;;;;;;2074037;28;20175;-50
2021/05/15 04:19:21;;;;;;;24.65;22.15;;;;;;;;;;2073879;28;20271;-54
2021/05/15 04:20:21;;;;;;;25.52;22.75;;;;;;;;;;2078807;28;20189;-52
2021/05/15 04:21:21;;;;;;;27.27;24.13;;;;;;;;;;2073214;28;20372;-48
2021/05/15 04:22:22;;;;;;;26.17;22.38;;;;;;;;;;2071729;28;20534;-51
2021/05/15 04:23:23;;;;;;;25.95;23.05;;;;;;;;;;2060795;28;20192;-50
2021/05/15 04:24:26;;;;;;;24.70;21.83;;;;;;;;;;2063600;28;20201;-52
2021/05/15 04:25:27;;;;;;;24.15;21.50;;;;;;;;;;2064054;28;20200;-50
2021/05/15 04:26:27;;;;;;;24.67;22.10;;;;;;;;;;2059059;28;20163;-52
2021/05/15 04:27:27;;;;;;;24.95;22.38;;;;;;;;;;2065521;28;20174;-49
2021/05/15 04:28:29;;;;;;;23.45;21.00;;;;;;;;;;2069092;28;20179;-54
2021/05/15 04:29:29;;;;;;;25.02;22.42;;;;;;;;;;2059936;28;20254;-51
2021/05/15 04:30:30;;;;;;;24.65;21.17;;;;;;;;;;2065680;23;20249;-56
2021/05/15 04:31:30;;;;;;;24.65;21.88;;;;;;;;;;2064726;28;20188;-56
2021/05/15 04:32:30;;;;;;;24.73;21.98;;;;;;;;;;2068522;28;20692;-51
2021/05/15 04:33:31;;;;;;;23.77;21.35;;;;;;;;;;2072111;28;20272;-53
2021/05/15 04:34:31;;;;;;;23.95;21.40;;;;;;;;;;2072359;28;20165;-53
2021/05/15 04:35:34;;;;;;;24.88;22.38;;;;;;;;;;2072271;28;20180;-53
2021/05/15 04:36:34;;;;;;;23.67;21.25;;;;;;;;;;2072831;28;20543;-53
2021/05/15 04:37:35;;;;;;;25.25;21.52;;;;;;;;;;2072263;28;20172;-52
2021/05/15 04:38:35;;;;;;;22.85;20.65;;;;;;;;;;2073136;28;20176;-52
2021/05/15 04:39:35;;;;;;;22.85;20.58;;;;;;;;;;2071038;28;20242;-54
2021/05/15 04:40:35;;;;;;;23.45;20.95;;;;;;;;;;2067483;28;20189;-54
2021/05/15 04:41:37;;;;;;;23.42;20.98;;;;;;;;;;2064297;28;20182;-53
2021/05/15 04:42:38;;;;;;;23.73;20.45;;;;;;;;;;2064588;28;20188;-52
2021/05/15 04:43:38;;;;;;;24.48;21.20;;;;;;;;;;2064212;28;20215;-54
2021/05/15 04:44:38;;;;;;;24.50;20.50;;;;;;;;;;2064327;28;20272;-54
2021/05/15 04:45:38;;;;;;;22.85;20.48;;;;;;;;;;2064993;28;20227;-58
2021/05/15 04:46:39;;;;;;;24.65;21.70;;;;;;;;;;2064371;28;20174;-56
2021/05/15 04:47:39;;;;;;;22.70;20.27;;;;;;;;;;2063211;28;20613;-56
2021/05/15 04:48:42;;;;;;;23.10;20.70;;;;;;;;;;2064331;28;20201;-53
2021/05/15 04:49:42;;;;;;;24.05;19.92;;;;;;;;;;2064714;28;20650;-53
2021/05/15 04:50:42;;;;;;;23.42;20.95;;;;;;;;;;2064651;28;20236;-53
2021/05/15 04:51:42;;;;;;;22.73;20.15;;;;;;;;;;2064370;28;20162;-53
2021/05/15 04:52:43;;;;;;;21.75;19.50;;;;;;;;;;2064825;28;20181;-52
2021/05/15 04:53:43;;;;;;;23.55;21.08;;;;;;;;;;2064773;28;20177;-53
2021/05/15 04:54:43;;;;;;;24.73;22.20;;;;;;;;;;2064080;28;20596;-54
2021/05/15 04:55:43;;;;;;;24.17;21.52;;;;;;;;;;2064958;28;20187;-54
2021/05/15 04:56:44;;;;;;;24.02;21.48;;;;;;;;;;2064207;28;20264;-57
2021/05/15 04:57:47;;;;;;;24.63;21.02;;;;;;;;;;2064592;28;20174;-55
2021/05/15 04:58:47;;;;;;;26.77;21.35;;;;;;;;;;2063796;28;20186;-53
2021/05/15 04:59:48;;;;;;;26.48;21.73;;;;;;;;;;2063396;28;20257;-54
2021/05/15 05:00:49;;;;;;;25.30;21.63;;;;;;;;;;2061784;28;20584;-54
2021/05/15 05:01:50;;;;;;;25.52;22.23;;;;;;;;;;2063934;28;20182;-55
2021/05/15 05:02:51;;;;;;;24.48;21.88;;;;;;;;;;2064575;28;20573;-54
2021/05/15 05:03:51;;;;;;;22.88;20.52;;;;;;;;;;2063717;28;20177;-53
2021/05/15 05:04:51;;;;;;;22.92;20.63;;;;;;;;;;2047677;28;20338;-58
2021/05/15 05:05:52;;;;;;;22.63;20.20;;;;;;;;;;2055509;28;20670;-56
2021/05/15 05:06:52;;;;;;;23.10;20.70;;;;;;;;;;2064075;28;20240;-53
2021/05/15 05:07:52;;;;;;;24.48;21.98;;;;;;;;;;2063982;28;20170;-54
2021/05/15 05:08:52;;;;;;;23.98;21.30;;;;;;;;;;2064500;28;20172;-54
2021/05/15 05:09:52;;;;;;;23.85;21.45;;;;;;;;;;2063431;28;20211;-54
2021/05/15 05:10:53;;;;;;;22.63;20.25;;;;;;;;;;2063538;28;20251;-54
2021/05/15 05:11:53;;;;;;;25.05;21.40;;;;;;;;;;2064304;28;20185;-52
2021/05/15 05:12:53;;;;;;;23.55;21.05;;;;;;;;;;2064677;28;20170;-56
2021/05/15 05:13:54;;;;;;;22.88;20.55;;;;;;;;;;2063040;28;20801;-52
2021/05/15 05:14:54;;;;;;;23.92;20.42;;;;;;;;;;2063664;28;20301;-56
2021/05/15 05:15:54;;;;;;;23.67;21.20;;;;;;;;;;2063479;28;20196;-58
2021/05/15 05:16:55;;;;;;;22.20;19.98;;;;;;;;;;2063799;28;20181;-55
2021/05/15 05:17:55;;;;;;;21.83;19.58;;;;;;;;;;2063887;28;20533;-55
2021/05/15 05:18:55;;;;;;;25.83;20.52;;;;;;;;;;2064161;28;20185;-54
2021/05/15 05:19:56;;;;;;;22.90;20.50;;;;;;;;;;2064154;28;20221;-52
2021/05/15 05:20:57;;;;;;;23.55;21.08;;;;;;;;;;2064762;28;20197;-51
2021/05/15 05:21:59;;;;;;;22.30;19.95;;;;;;;;;;2064773;28;20182;-57
2021/05/15 05:22:59;;;;;;;23.45;20.90;;;;;;;;;;2064324;28;20162;-57
2021/05/15 05:23:59;;;;;;;22.60;20.38;;;;;;;;;;2063242;28;20181;-58
2021/05/15 05:24:59;;;;;;;21.08;18.98;;;;;;;;;;2067382;28;20224;-55
2021/05/15 05:26:00;;;;;;;21.98;19.58;;;;;;;;;;2066028;28;20178;-54
2021/05/15 05:27:03;;;;;;;22.75;20.42;;;;;;;;;;2065702;28;20199;-52
2021/05/15 05:28:03;;;;;;;22.55;20.15;;;;;;;;;;2064740;28;20691;-57
2021/05/15 05:29:08;;;;;;;20.85;18.70;;;;;;;;;;2065749;28;20236;-54
2021/05/15 05:30:08;;;;;;;22.75;20.52;;;;;;;;;;2065564;28;20173;-52
2021/05/15 05:31:08;;;;;;;21.70;19.42;;;;;;;;;;2065800;28;20173;-54
2021/05/15 05:32:09;;;;;;;26.48;19.45;;;;;;;;;;2065450;28;20188;-52
2021/05/15 05:33:09;;;;;;;21.52;19.27;;;;;;;;;;2065689;28;20200;-56
2021/05/15 05:34:09;;;;;;;22.48;20.25;;;;;;;;;;2065487;28;20268;-57
2021/05/15 05:35:10;;;;;;;22.88;20.45;;;;;;;;;;2065835;28;20532;-53
2021/05/15 05:36:10;;;;;;;23.00;20.80;;;;;;;;;;2064898;28;20185;-54
2021/05/15 05:37:11;;;;;;;25.90;20.23;;;;;;;;;;2065671;28;20209;-54
2021/05/15 05:38:11;;;;;;;22.35;19.98;;;;;;;;;;2065420;28;20263;-54
2021/05/15 05:39:13;;;;;;;22.70;20.25;;;;;;;;;;2065576;28;20280;-56
2021/05/15 05:40:14;;;;;;;22.60;20.20;;;;;;;;;;2066261;28;20220;-52
2021/05/15 05:41:14;;;;;;;22.67;20.27;;;;;;;;;;2065846;28;21788;-55
2021/05/15 05:42:14;;;;;;;24.63;20.75;;;;;;;;;;2065558;28;20201;-55
2021/05/15 05:43:15;;;;;;;22.45;20.15;;;;;;;;;;2065363;28;20257;-51
2021/05/15 05:44:15;;;;;;;22.88;20.67;;;;;;;;;;2072689;28;20177;-56
2021/05/15 05:45:15;;;;;;;22.35;20.13;;;;;;;;;;2073659;28;20176;-53
2021/05/15 05:46:16;;;;;;;22.30;19.90;;;;;;;;;;2066202;28;20263;-53
2021/05/15 05:47:16;;;;;;;22.40;20.00;;;;;;;;;;2065565;28;20493;-56
2021/05/15 05:48:18;;;;;;;22.48;20.02;;;;;;;;;;2065424;28;20166;-58
2021/05/15 05:49:18;;;;;;;22.88;20.35;;;;;;;;;;2065761;28;20181;-58
2021/05/15 05:50:19;;;;;;;22.50;20.13;;;;;;;;;;2065993;28;20519;-53
2021/05/15 05:51:19;;;;;;;21.83;19.52;;;;;;;;;;2066336;28;20170;-54
2021/05/15 05:52:19;;;;;;;23.52;21.13;;;;;;;;;;2065327;28;20343;-54
2021/05/15 05:53:19;;;;;;;22.50;20.20;;;;;;;;;;2066239;28;20177;-55